sensor_id;sensor_type;location;lat;lon;timestamp;temperature;humidity
1526;DHT22;756;49.982;8.240;2022-07-17T00:02:20;19.30;53.30
1526;DHT22;756;49.982;8.240;2022-07-17T00:04:47;19.30;53.40
1526;DHT22;756;49.982;8.240;2022-07-17T00:07:14;19.30;53.20
1526;DHT22;756;49.982;8.240;2022-07-17T00:09:41;19.30;53.40
1526;DHT22;756;49.982;8.240;2022-07-17T00:12:07;19.20;53.70
1526;DHT22;756;49.982;8.240;2022-07-17T00:14:34;19.20;53.60
1526;DHT22;756;49.982;8.240;2022-07-17T00:17:01;19.20;53.60
1526;DHT22;756;49.982;8.240;2022-07-17T00:19:28;19.10;53.70
1526;DHT22;756;49.982;8.240;2022-07-17T00:21:55;19.10;53.50
1526;DHT22;756;49.982;8.240;2022-07-17T00:24:22;19.00;53.70
1526;DHT22;756;49.982;8.240;2022-07-17T00:26:50;18.90;54.00
1526;DHT22;756;49.982;8.240;2022-07-17T00:29:18;18.90;54.30
1526;DHT22;756;49.982;8.240;2022-07-17T00:31:46;18.90;54.00
1526;DHT22;756;49.982;8.240;2022-07-17T00:34:13;18.80;54.00
1526;DHT22;756;49.982;8.240;2022-07-17T00:36:39;18.80;54.20
1526;DHT22;756;49.982;8.240;2022-07-17T00:39:06;18.80;54.20
1526;DHT22;756;49.982;8.240;2022-07-17T00:41:33;18.80;54.20
1526;DHT22;756;49.982;8.240;2022-07-17T00:44:08;18.70;54.40
1526;DHT22;756;49.982;8.240;2022-07-17T00:46:35;18.60;54.50
1526;DHT22;756;49.982;8.240;2022-07-17T00:49:03;18.60;54.80
1526;DHT22;756;49.982;8.240;2022-07-17T00:51:30;18.50;54.90
1526;DHT22;756;49.982;8.240;2022-07-17T00:53:58;18.50;54.90
1526;DHT22;756;49.982;8.240;2022-07-17T00:56:31;18.40;55.10
1526;DHT22;756;49.982;8.240;2022-07-17T00:59:00;18.40;55.20
1526;DHT22;756;49.982;8.240;2022-07-17T01:01:29;18.30;55.40
1526;DHT22;756;49.982;8.240;2022-07-17T01:03:57;18.30;55.60
1526;DHT22;756;49.982;8.240;2022-07-17T01:06:25;18.30;55.40
1526;DHT22;756;49.982;8.240;2022-07-17T01:08:52;18.20;55.40
1526;DHT22;756;49.982;8.240;2022-07-17T01:11:20;18.20;55.80
1526;DHT22;756;49.982;8.240;2022-07-17T01:13:47;18.10;56.00
1526;DHT22;756;49.982;8.240;2022-07-17T01:16:15;18.10;56.10
1526;DHT22;756;49.982;8.240;2022-07-17T01:18:42;18.00;56.20
1526;DHT22;756;49.982;8.240;2022-07-17T01:21:09;18.10;56.10
1526;DHT22;756;49.982;8.240;2022-07-17T01:23:36;18.00;56.30
1526;DHT22;756;49.982;8.240;2022-07-17T01:26:02;18.00;56.30
1526;DHT22;756;49.982;8.240;2022-07-17T01:28:30;17.90;56.30
1526;DHT22;756;49.982;8.240;2022-07-17T01:30:57;17.90;56.30
1526;DHT22;756;49.982;8.240;2022-07-17T01:33:26;17.90;56.60
1526;DHT22;756;49.982;8.240;2022-07-17T01:35:53;17.80;56.50
1526;DHT22;756;49.982;8.240;2022-07-17T01:38:20;17.80;56.60
1526;DHT22;756;49.982;8.240;2022-07-17T01:40:46;17.70;56.70
1526;DHT22;756;49.982;8.240;2022-07-17T01:43:14;17.70;56.40
1526;DHT22;756;49.982;8.240;2022-07-17T01:45:41;17.70;56.70
1526;DHT22;756;49.982;8.240;2022-07-17T01:48:08;17.60;56.90
1526;DHT22;756;49.982;8.240;2022-07-17T01:50:35;17.50;56.90
1526;DHT22;756;49.982;8.240;2022-07-17T01:53:02;17.50;57.00
1526;DHT22;756;49.982;8.240;2022-07-17T01:55:29;17.50;57.20
1526;DHT22;756;49.982;8.240;2022-07-17T01:57:56;17.50;57.40
1526;DHT22;756;49.982;8.240;2022-07-17T02:00:23;17.40;57.40
1526;DHT22;756;49.982;8.240;2022-07-17T02:02:52;17.40;57.70
1526;DHT22;756;49.982;8.240;2022-07-17T02:05:18;17.40;57.50
1526;DHT22;756;49.982;8.240;2022-07-17T02:07:46;17.30;57.60
1526;DHT22;756;49.982;8.240;2022-07-17T02:10:13;17.30;57.60
1526;DHT22;756;49.982;8.240;2022-07-17T02:12:44;17.30;57.60
1526;DHT22;756;49.982;8.240;2022-07-17T02:15:11;17.30;57.70
1526;DHT22;756;49.982;8.240;2022-07-17T02:17:39;17.30;58.10
1526;DHT22;756;49.982;8.240;2022-07-17T02:20:07;17.20;58.10
1526;DHT22;756;49.982;8.240;2022-07-17T02:22:36;17.20;58.20
1526;DHT22;756;49.982;8.240;2022-07-17T02:25:05;17.20;58.20
1526;DHT22;756;49.982;8.240;2022-07-17T02:27:32;17.20;58.40
1526;DHT22;756;49.982;8.240;2022-07-17T02:30:05;17.20;58.30
1526;DHT22;756;49.982;8.240;2022-07-17T02:32:32;17.10;58.20
1526;DHT22;756;49.982;8.240;2022-07-17T02:34:59;17.10;58.40
1526;DHT22;756;49.982;8.240;2022-07-17T02:37:26;17.00;58.60
1526;DHT22;756;49.982;8.240;2022-07-17T02:39:53;17.00;58.40
1526;DHT22;756;49.982;8.240;2022-07-17T02:42:21;17.00;58.50
1526;DHT22;756;49.982;8.240;2022-07-17T02:44:49;17.00;58.10
1526;DHT22;756;49.982;8.240;2022-07-17T02:47:32;16.90;58.60
1526;DHT22;756;49.982;8.240;2022-07-17T02:50:00;16.90;58.70
1526;DHT22;756;49.982;8.240;2022-07-17T02:52:30;16.90;58.60
1526;DHT22;756;49.982;8.240;2022-07-17T02:54:56;16.80;59.00
1526;DHT22;756;49.982;8.240;2022-07-17T02:57:23;16.80;59.00
1526;DHT22;756;49.982;8.240;2022-07-17T02:59:50;16.70;59.00
1526;DHT22;756;49.982;8.240;2022-07-17T03:02:17;16.70;59.20
1526;DHT22;756;49.982;8.240;2022-07-17T03:04:44;16.70;59.30
1526;DHT22;756;49.982;8.240;2022-07-17T03:07:11;16.70;59.30
1526;DHT22;756;49.982;8.240;2022-07-17T03:09:38;16.60;59.30
1526;DHT22;756;49.982;8.240;2022-07-17T03:12:05;16.60;59.40
1526;DHT22;756;49.982;8.240;2022-07-17T03:14:31;16.60;59.30
1526;DHT22;756;49.982;8.240;2022-07-17T03:16:58;16.60;59.70
1526;DHT22;756;49.982;8.240;2022-07-17T03:19:25;16.50;59.80
1526;DHT22;756;49.982;8.240;2022-07-17T03:21:52;16.50;60.00
1526;DHT22;756;49.982;8.240;2022-07-17T03:24:19;16.50;60.40
1526;DHT22;756;49.982;8.240;2022-07-17T03:26:46;16.40;60.20
1526;DHT22;756;49.982;8.240;2022-07-17T03:29:15;16.40;60.40
1526;DHT22;756;49.982;8.240;2022-07-17T03:31:45;16.40;60.50
1526;DHT22;756;49.982;8.240;2022-07-17T03:34:12;16.40;60.60
1526;DHT22;756;49.982;8.240;2022-07-17T03:36:39;16.40;60.70
1526;DHT22;756;49.982;8.240;2022-07-17T03:39:06;16.40;60.70
1526;DHT22;756;49.982;8.240;2022-07-17T03:41:33;16.40;60.70
1526;DHT22;756;49.982;8.240;2022-07-17T03:44:00;16.30;60.70
1526;DHT22;756;49.982;8.240;2022-07-17T03:46:27;16.30;60.70
1526;DHT22;756;49.982;8.240;2022-07-17T03:48:54;16.30;60.50
1526;DHT22;756;49.982;8.240;2022-07-17T03:51:21;16.30;60.50
1526;DHT22;756;49.982;8.240;2022-07-17T03:53:48;16.30;60.50
1526;DHT22;756;49.982;8.240;2022-07-17T03:56:14;16.20;60.50
1526;DHT22;756;49.982;8.240;2022-07-17T03:58:41;16.20;60.60
1526;DHT22;756;49.982;8.240;2022-07-17T04:01:08;16.20;60.70
1526;DHT22;756;49.982;8.240;2022-07-17T04:03:35;16.20;60.80
1526;DHT22;756;49.982;8.240;2022-07-17T04:06:02;16.20;60.70
1526;DHT22;756;49.982;8.240;2022-07-17T04:08:29;16.20;60.80
1526;DHT22;756;49.982;8.240;2022-07-17T04:10:56;16.10;60.90
1526;DHT22;756;49.982;8.240;2022-07-17T04:13:23;16.10;60.90
1526;DHT22;756;49.982;8.240;2022-07-17T04:15:50;16.10;61.00
1526;DHT22;756;49.982;8.240;2022-07-17T04:18:25;16.10;61.00
1526;DHT22;756;49.982;8.240;2022-07-17T04:20:54;16.10;61.00
1526;DHT22;756;49.982;8.240;2022-07-17T04:23:21;16.10;61.20
1526;DHT22;756;49.982;8.240;2022-07-17T04:25:48;16.10;61.10
1526;DHT22;756;49.982;8.240;2022-07-17T04:28:15;16.10;61.00
1526;DHT22;756;49.982;8.240;2022-07-17T04:30:42;16.20;60.90
1526;DHT22;756;49.982;8.240;2022-07-17T04:33:09;16.20;61.00
1526;DHT22;756;49.982;8.240;2022-07-17T04:35:36;16.20;61.00
1526;DHT22;756;49.982;8.240;2022-07-17T04:38:04;16.20;61.10
1526;DHT22;756;49.982;8.240;2022-07-17T04:40:34;16.20;61.20
1526;DHT22;756;49.982;8.240;2022-07-17T04:43:01;16.20;61.30
1526;DHT22;756;49.982;8.240;2022-07-17T04:45:28;16.30;61.50
1526;DHT22;756;49.982;8.240;2022-07-17T04:47:54;16.30;61.50
1526;DHT22;756;49.982;8.240;2022-07-17T04:50:22;16.30;61.40
1526;DHT22;756;49.982;8.240;2022-07-17T04:52:49;16.30;61.60
1526;DHT22;756;49.982;8.240;2022-07-17T04:55:16;16.40;61.70
1526;DHT22;756;49.982;8.240;2022-07-17T04:57:43;16.40;61.60
1526;DHT22;756;49.982;8.240;2022-07-17T05:00:11;16.40;61.70
1526;DHT22;756;49.982;8.240;2022-07-17T05:02:38;16.50;61.90
1526;DHT22;756;49.982;8.240;2022-07-17T05:05:05;16.50;61.90
1526;DHT22;756;49.982;8.240;2022-07-17T05:07:32;16.60;62.00
1526;DHT22;756;49.982;8.240;2022-07-17T05:09:59;16.60;62.00
1526;DHT22;756;49.982;8.240;2022-07-17T05:12:27;16.70;62.00
1526;DHT22;756;49.982;8.240;2022-07-17T05:14:53;16.70;62.00
1526;DHT22;756;49.982;8.240;2022-07-17T05:17:20;16.80;62.00
1526;DHT22;756;49.982;8.240;2022-07-17T05:19:47;16.80;62.10
1526;DHT22;756;49.982;8.240;2022-07-17T05:22:14;16.90;62.20
1526;DHT22;756;49.982;8.240;2022-07-17T05:24:41;17.00;61.60
1526;DHT22;756;49.982;8.240;2022-07-17T05:27:07;17.10;61.20
1526;DHT22;756;49.982;8.240;2022-07-17T05:29:34;17.10;61.10
1526;DHT22;756;49.982;8.240;2022-07-17T05:32:02;17.20;61.30
1526;DHT22;756;49.982;8.240;2022-07-17T05:34:30;17.30;60.90
1526;DHT22;756;49.982;8.240;2022-07-17T05:36:57;17.40;60.50
1526;DHT22;756;49.982;8.240;2022-07-17T05:39:24;17.50;60.00
1526;DHT22;756;49.982;8.240;2022-07-17T05:41:51;17.60;59.80
1526;DHT22;756;49.982;8.240;2022-07-17T05:44:17;17.60;59.80
1526;DHT22;756;49.982;8.240;2022-07-17T05:46:44;17.60;60.00
1526;DHT22;756;49.982;8.240;2022-07-17T05:49:11;17.70;60.10
1526;DHT22;756;49.982;8.240;2022-07-17T05:51:38;17.90;59.40
1526;DHT22;756;49.982;8.240;2022-07-17T05:54:04;17.90;59.00
1526;DHT22;756;49.982;8.240;2022-07-17T05:56:34;18.00;59.10
1526;DHT22;756;49.982;8.240;2022-07-17T05:59:01;18.10;58.80
1526;DHT22;756;49.982;8.240;2022-07-17T06:01:28;18.10;58.20
1526;DHT22;756;49.982;8.240;2022-07-17T06:03:55;18.10;58.60
1526;DHT22;756;49.982;8.240;2022-07-17T06:06:22;18.20;58.70
1526;DHT22;756;49.982;8.240;2022-07-17T06:08:49;18.20;58.30
1526;DHT22;756;49.982;8.240;2022-07-17T06:11:16;18.30;58.30
1526;DHT22;756;49.982;8.240;2022-07-17T06:13:48;18.40;58.00
1526;DHT22;756;49.982;8.240;2022-07-17T06:16:15;18.50;57.90
1526;DHT22;756;49.982;8.240;2022-07-17T06:18:42;18.60;57.80
1526;DHT22;756;49.982;8.240;2022-07-17T06:21:08;18.70;57.50
1526;DHT22;756;49.982;8.240;2022-07-17T06:23:35;18.80;56.30
1526;DHT22;756;49.982;8.240;2022-07-17T06:26:02;18.80;55.60
1526;DHT22;756;49.982;8.240;2022-07-17T06:28:29;18.90;54.40
1526;DHT22;756;49.982;8.240;2022-07-17T06:30:55;19.10;54.10
1526;DHT22;756;49.982;8.240;2022-07-17T06:33:22;19.20;53.50
1526;DHT22;756;49.982;8.240;2022-07-17T06:35:49;19.30;53.50
1526;DHT22;756;49.982;8.240;2022-07-17T06:38:16;19.40;53.10
1526;DHT22;756;49.982;8.240;2022-07-17T06:40:43;19.50;52.60
1526;DHT22;756;49.982;8.240;2022-07-17T06:43:09;19.60;52.10
1526;DHT22;756;49.982;8.240;2022-07-17T06:45:36;19.80;51.60
1526;DHT22;756;49.982;8.240;2022-07-17T06:48:03;19.90;50.40
1526;DHT22;756;49.982;8.240;2022-07-17T06:50:30;20.00;50.10
1526;DHT22;756;49.982;8.240;2022-07-17T06:52:57;20.10;50.00
1526;DHT22;756;49.982;8.240;2022-07-17T06:55:24;20.20;49.70
1526;DHT22;756;49.982;8.240;2022-07-17T06:57:51;20.30;49.30
1526;DHT22;756;49.982;8.240;2022-07-17T07:00:18;20.40;49.50
1526;DHT22;756;49.982;8.240;2022-07-17T07:02:45;20.60;49.40
1526;DHT22;756;49.982;8.240;2022-07-17T07:05:13;20.70;49.70
1526;DHT22;756;49.982;8.240;2022-07-17T07:07:40;20.80;48.90
1526;DHT22;756;49.982;8.240;2022-07-17T07:10:08;20.80;48.80
1526;DHT22;756;49.982;8.240;2022-07-17T07:12:34;21.00;48.80
1526;DHT22;756;49.982;8.240;2022-07-17T07:15:01;21.10;48.60
1526;DHT22;756;49.982;8.240;2022-07-17T07:17:37;21.20;47.70
1526;DHT22;756;49.982;8.240;2022-07-17T07:20:04;21.30;47.50
1526;DHT22;756;49.982;8.240;2022-07-17T07:22:32;21.40;47.90
1526;DHT22;756;49.982;8.240;2022-07-17T07:25:00;21.60;47.50
1526;DHT22;756;49.982;8.240;2022-07-17T07:27:26;21.70;46.90
1526;DHT22;756;49.982;8.240;2022-07-17T07:29:53;21.90;46.60
1526;DHT22;756;49.982;8.240;2022-07-17T07:32:20;22.10;46.70
1526;DHT22;756;49.982;8.240;2022-07-17T07:34:47;22.30;46.40
1526;DHT22;756;49.982;8.240;2022-07-17T07:37:14;22.60;45.70
1526;DHT22;756;49.982;8.240;2022-07-17T07:39:41;22.80;45.60
1526;DHT22;756;49.982;8.240;2022-07-17T07:42:08;23.00;44.80
1526;DHT22;756;49.982;8.240;2022-07-17T07:44:34;23.10;43.00
1526;DHT22;756;49.982;8.240;2022-07-17T07:47:02;23.30;42.80
1526;DHT22;756;49.982;8.240;2022-07-17T07:49:29;23.40;42.90
1526;DHT22;756;49.982;8.240;2022-07-17T07:52:04;23.50;43.10
1526;DHT22;756;49.982;8.240;2022-07-17T07:54:32;23.70;43.20
1526;DHT22;756;49.982;8.240;2022-07-17T07:56:59;23.90;42.20
1526;DHT22;756;49.982;8.240;2022-07-17T07:59:26;24.10;42.50
1526;DHT22;756;49.982;8.240;2022-07-17T08:01:53;24.30;41.80
1526;DHT22;756;49.982;8.240;2022-07-17T08:04:20;24.40;41.20
1526;DHT22;756;49.982;8.240;2022-07-17T08:06:47;24.60;41.60
1526;DHT22;756;49.982;8.240;2022-07-17T08:09:13;24.80;41.10
1526;DHT22;756;49.982;8.240;2022-07-17T08:11:41;25.00;40.60
1526;DHT22;756;49.982;8.240;2022-07-17T08:14:08;25.10;40.30
1526;DHT22;756;49.982;8.240;2022-07-17T08:16:42;25.30;40.30
1526;DHT22;756;49.982;8.240;2022-07-17T08:19:09;25.50;39.90
1526;DHT22;756;49.982;8.240;2022-07-17T08:21:36;25.60;39.60
1526;DHT22;756;49.982;8.240;2022-07-17T08:24:04;25.70;39.00
1526;DHT22;756;49.982;8.240;2022-07-17T08:26:31;25.70;38.70
1526;DHT22;756;49.982;8.240;2022-07-17T08:28:57;25.80;39.10
1526;DHT22;756;49.982;8.240;2022-07-17T08:31:24;25.90;38.80
1526;DHT22;756;49.982;8.240;2022-07-17T08:33:52;26.10;38.90
1526;DHT22;756;49.982;8.240;2022-07-17T08:36:18;26.10;37.90
1526;DHT22;756;49.982;8.240;2022-07-17T08:38:45;26.20;37.90
1526;DHT22;756;49.982;8.240;2022-07-17T08:41:15;26.30;37.20
1526;DHT22;756;49.982;8.240;2022-07-17T08:43:43;26.40;36.70
1526;DHT22;756;49.982;8.240;2022-07-17T08:46:11;26.50;36.50
1526;DHT22;756;49.982;8.240;2022-07-17T08:48:42;26.60;36.00
1526;DHT22;756;49.982;8.240;2022-07-17T08:51:11;26.70;36.60
1526;DHT22;756;49.982;8.240;2022-07-17T08:53:38;26.90;36.60
1526;DHT22;756;49.982;8.240;2022-07-17T08:56:06;27.00;36.60
1526;DHT22;756;49.982;8.240;2022-07-17T08:58:33;27.20;35.80
1526;DHT22;756;49.982;8.240;2022-07-17T09:01:00;27.30;35.70
1526;DHT22;756;49.982;8.240;2022-07-17T09:03:27;27.40;35.40
1526;DHT22;756;49.982;8.240;2022-07-17T09:05:54;27.50;35.10
1526;DHT22;756;49.982;8.240;2022-07-17T09:08:23;27.60;35.00
1526;DHT22;756;49.982;8.240;2022-07-17T09:10:54;27.80;35.30
1526;DHT22;756;49.982;8.240;2022-07-17T09:13:30;27.90;34.50
1526;DHT22;756;49.982;8.240;2022-07-17T09:18:26;28.10;33.80
1526;DHT22;756;49.982;8.240;2022-07-17T09:20:55;28.20;33.90
1526;DHT22;756;49.982;8.240;2022-07-17T09:23:23;28.30;33.90
1526;DHT22;756;49.982;8.240;2022-07-17T09:25:54;28.50;33.10
1526;DHT22;756;49.982;8.240;2022-07-17T09:28:23;28.50;32.80
1526;DHT22;756;49.982;8.240;2022-07-17T09:30:54;28.60;33.00
1526;DHT22;756;49.982;8.240;2022-07-17T09:33:26;28.70;32.40
1526;DHT22;756;49.982;8.240;2022-07-17T09:36:11;28.80;32.40
1526;DHT22;756;49.982;8.240;2022-07-17T09:38:41;29.00;32.40
1526;DHT22;756;49.982;8.240;2022-07-17T09:41:14;29.20;32.00
1526;DHT22;756;49.982;8.240;2022-07-17T09:43:53;29.30;31.20
1526;DHT22;756;49.982;8.240;2022-07-17T09:46:32;29.40;31.30
1526;DHT22;756;49.982;8.240;2022-07-17T09:49:03;29.60;30.40
1526;DHT22;756;49.982;8.240;2022-07-17T09:51:32;29.60;30.70
1526;DHT22;756;49.982;8.240;2022-07-17T09:54:03;29.80;30.90
1526;DHT22;756;49.982;8.240;2022-07-17T09:56:32;30.00;30.20
1526;DHT22;756;49.982;8.240;2022-07-17T09:59:11;30.10;29.90
1526;DHT22;756;49.982;8.240;2022-07-17T10:01:40;30.10;29.60
1526;DHT22;756;49.982;8.240;2022-07-17T10:04:09;30.10;29.40
1526;DHT22;756;49.982;8.240;2022-07-17T10:06:38;30.20;29.40
1526;DHT22;756;49.982;8.240;2022-07-17T10:09:05;30.40;29.00
1526;DHT22;756;49.982;8.240;2022-07-17T10:11:34;30.50;29.10
1526;DHT22;756;49.982;8.240;2022-07-17T10:14:11;30.90;29.10
1526;DHT22;756;49.982;8.240;2022-07-17T10:16:40;31.00;28.70
1526;DHT22;756;49.982;8.240;2022-07-17T10:19:23;30.80;28.00
1526;DHT22;756;49.982;8.240;2022-07-17T10:21:59;31.00;28.10
1526;DHT22;756;49.982;8.240;2022-07-17T10:24:28;31.10;27.60
1526;DHT22;756;49.982;8.240;2022-07-17T10:26:58;31.30;28.10
1526;DHT22;756;49.982;8.240;2022-07-17T10:29:32;31.20;28.20
1526;DHT22;756;49.982;8.240;2022-07-17T10:32:01;31.30;27.80
1526;DHT22;756;49.982;8.240;2022-07-17T10:40:19;31.30;27.70
1526;DHT22;756;49.982;8.240;2022-07-17T10:42:54;31.20;28.10
1526;DHT22;756;49.982;8.240;2022-07-17T10:45:25;31.10;27.70
1526;DHT22;756;49.982;8.240;2022-07-17T10:47:59;31.00;28.00
1526;DHT22;756;49.982;8.240;2022-07-17T10:55:41;30.20;28.90
1526;DHT22;756;49.982;8.240;2022-07-17T10:58:25;29.90;29.00
1526;DHT22;756;49.982;8.240;2022-07-17T11:01:12;29.50;28.70
1526;DHT22;756;49.982;8.240;2022-07-17T11:06:25;28.80;28.50
1526;DHT22;756;49.982;8.240;2022-07-17T11:08:53;28.50;28.50
1526;DHT22;756;49.982;8.240;2022-07-17T11:11:22;28.40;28.80
1526;DHT22;756;49.982;8.240;2022-07-17T11:14:10;28.20;29.10
1526;DHT22;756;49.982;8.240;2022-07-17T11:16:51;28.10;29.60
1526;DHT22;756;49.982;8.240;2022-07-17T11:19:32;28.00;28.70
1526;DHT22;756;49.982;8.240;2022-07-17T11:22:02;27.80;28.10
1526;DHT22;756;49.982;8.240;2022-07-17T11:27:19;27.50;29.70
1526;DHT22;756;49.982;8.240;2022-07-17T11:29:48;27.30;30.50
1526;DHT22;756;49.982;8.240;2022-07-17T11:32:15;27.30;31.20
1526;DHT22;756;49.982;8.240;2022-07-17T11:34:42;27.10;31.10
1526;DHT22;756;49.982;8.240;2022-07-17T11:37:09;27.00;31.70
1526;DHT22;756;49.982;8.240;2022-07-17T11:39:41;26.90;31.60
1526;DHT22;756;49.982;8.240;2022-07-17T11:42:11;26.80;31.50
1526;DHT22;756;49.982;8.240;2022-07-17T11:44:38;26.80;31.40
1526;DHT22;756;49.982;8.240;2022-07-17T11:47:06;26.80;31.30
1526;DHT22;756;49.982;8.240;2022-07-17T11:49:35;26.80;31.80
1526;DHT22;756;49.982;8.240;2022-07-17T11:52:11;26.90;32.00
1526;DHT22;756;49.982;8.240;2022-07-17T11:54:52;26.90;31.80
1526;DHT22;756;49.982;8.240;2022-07-17T11:57:22;26.90;31.80
1526;DHT22;756;49.982;8.240;2022-07-17T11:59:49;26.90;32.10
1526;DHT22;756;49.982;8.240;2022-07-17T12:02:20;26.80;32.30
1526;DHT22;756;49.982;8.240;2022-07-17T12:04:56;26.80;31.90
1526;DHT22;756;49.982;8.240;2022-07-17T12:07:26;26.90;32.60
1526;DHT22;756;49.982;8.240;2022-07-17T12:09:53;26.90;31.90
1526;DHT22;756;49.982;8.240;2022-07-17T12:12:22;26.90;31.80
1526;DHT22;756;49.982;8.240;2022-07-17T12:14:54;27.00;32.10
1526;DHT22;756;49.982;8.240;2022-07-17T12:17:22;27.00;31.90
1526;DHT22;756;49.982;8.240;2022-07-17T12:19:51;27.00;31.90
1526;DHT22;756;49.982;8.240;2022-07-17T12:22:19;27.00;31.70
1526;DHT22;756;49.982;8.240;2022-07-17T12:24:46;27.00;32.10
1526;DHT22;756;49.982;8.240;2022-07-17T12:27:14;27.10;31.80
1526;DHT22;756;49.982;8.240;2022-07-17T12:29:42;27.00;30.60
1526;DHT22;756;49.982;8.240;2022-07-17T12:32:17;27.00;30.50
1526;DHT22;756;49.982;8.240;2022-07-17T12:34:47;27.00;30.40
1526;DHT22;756;49.982;8.240;2022-07-17T12:37:19;27.00;30.90
1526;DHT22;756;49.982;8.240;2022-07-17T12:39:47;27.00;30.80
1526;DHT22;756;49.982;8.240;2022-07-17T12:42:18;27.00;31.00
1526;DHT22;756;49.982;8.240;2022-07-17T12:44:46;27.00;31.40
1526;DHT22;756;49.982;8.240;2022-07-17T12:47:17;27.00;32.00
1526;DHT22;756;49.982;8.240;2022-07-17T12:49:43;27.00;32.10
1526;DHT22;756;49.982;8.240;2022-07-17T12:52:11;27.00;32.60
1526;DHT22;756;49.982;8.240;2022-07-17T12:54:38;27.00;32.60
1526;DHT22;756;49.982;8.240;2022-07-17T12:57:05;27.00;32.30
1526;DHT22;756;49.982;8.240;2022-07-17T12:59:33;27.10;31.40
1526;DHT22;756;49.982;8.240;2022-07-17T13:02:00;27.10;31.90
1526;DHT22;756;49.982;8.240;2022-07-17T13:04:27;27.10;31.80
1526;DHT22;756;49.982;8.240;2022-07-17T13:06:54;27.20;31.40
1526;DHT22;756;49.982;8.240;2022-07-17T13:09:21;27.30;31.20
1526;DHT22;756;49.982;8.240;2022-07-17T13:11:47;27.30;31.90
1526;DHT22;756;49.982;8.240;2022-07-17T13:14:14;27.40;31.60
1526;DHT22;756;49.982;8.240;2022-07-17T13:16:43;27.30;31.80
1526;DHT22;756;49.982;8.240;2022-07-17T13:19:10;27.30;31.40
1526;DHT22;756;49.982;8.240;2022-07-17T13:21:38;27.30;31.20
1526;DHT22;756;49.982;8.240;2022-07-17T13:24:04;27.30;31.40
1526;DHT22;756;49.982;8.240;2022-07-17T13:26:32;27.30;32.00
1526;DHT22;756;49.982;8.240;2022-07-17T13:29:00;27.40;32.30
1526;DHT22;756;49.982;8.240;2022-07-17T13:31:27;27.50;31.80
1526;DHT22;756;49.982;8.240;2022-07-17T13:33:54;27.70;32.10
1526;DHT22;756;49.982;8.240;2022-07-17T13:36:21;27.70;32.60
1526;DHT22;756;49.982;8.240;2022-07-17T13:38:48;27.80;31.50
1526;DHT22;756;49.982;8.240;2022-07-17T13:41:14;27.80;32.00
1526;DHT22;756;49.982;8.240;2022-07-17T13:43:41;27.70;31.90
1526;DHT22;756;49.982;8.240;2022-07-17T13:46:08;27.70;31.40
1526;DHT22;756;49.982;8.240;2022-07-17T13:48:35;27.70;31.30
1526;DHT22;756;49.982;8.240;2022-07-17T13:51:02;27.70;31.20
1526;DHT22;756;49.982;8.240;2022-07-17T13:53:29;27.70;32.00
1526;DHT22;756;49.982;8.240;2022-07-17T13:55:56;27.70;32.00
1526;DHT22;756;49.982;8.240;2022-07-17T13:58:23;27.80;32.30
1526;DHT22;756;49.982;8.240;2022-07-17T14:00:50;27.80;32.00
1526;DHT22;756;49.982;8.240;2022-07-17T14:03:17;27.80;31.30
1526;DHT22;756;49.982;8.240;2022-07-17T14:05:44;27.80;31.50
1526;DHT22;756;49.982;8.240;2022-07-17T14:08:11;27.80;31.10
1526;DHT22;756;49.982;8.240;2022-07-17T14:10:38;27.80;31.00
1526;DHT22;756;49.982;8.240;2022-07-17T14:13:05;27.80;31.10
1526;DHT22;756;49.982;8.240;2022-07-17T14:15:32;27.70;31.40
1526;DHT22;756;49.982;8.240;2022-07-17T14:17:59;27.70;31.30
1526;DHT22;756;49.982;8.240;2022-07-17T14:20:25;27.80;31.30
1526;DHT22;756;49.982;8.240;2022-07-17T14:22:53;27.90;31.70
1526;DHT22;756;49.982;8.240;2022-07-17T14:25:21;27.90;31.50
1526;DHT22;756;49.982;8.240;2022-07-17T14:27:48;27.90;31.50
1526;DHT22;756;49.982;8.240;2022-07-17T14:30:15;27.90;31.50
1526;DHT22;756;49.982;8.240;2022-07-17T14:32:42;27.90;31.60
1526;DHT22;756;49.982;8.240;2022-07-17T14:35:08;27.90;31.70
1526;DHT22;756;49.982;8.240;2022-07-17T14:37:36;27.90;32.20
1526;DHT22;756;49.982;8.240;2022-07-17T14:40:10;27.90;32.30
1526;DHT22;756;49.982;8.240;2022-07-17T14:42:38;28.00;32.00
1526;DHT22;756;49.982;8.240;2022-07-17T14:45:05;28.00;32.00
1526;DHT22;756;49.982;8.240;2022-07-17T14:47:32;28.00;31.60
1526;DHT22;756;49.982;8.240;2022-07-17T14:49:59;28.10;31.50
1526;DHT22;756;49.982;8.240;2022-07-17T14:52:26;28.20;31.20
1526;DHT22;756;49.982;8.240;2022-07-17T14:54:52;28.30;31.70
1526;DHT22;756;49.982;8.240;2022-07-17T14:57:19;28.40;32.00
1526;DHT22;756;49.982;8.240;2022-07-17T14:59:46;28.60;31.20
1526;DHT22;756;49.982;8.240;2022-07-17T15:02:13;28.70;31.10
1526;DHT22;756;49.982;8.240;2022-07-17T15:04:40;28.80;31.20
1526;DHT22;756;49.982;8.240;2022-07-17T15:07:07;28.80;30.90
1526;DHT22;756;49.982;8.240;2022-07-17T15:09:35;28.90;30.70
1526;DHT22;756;49.982;8.240;2022-07-17T15:12:02;29.10;30.50
1526;DHT22;756;49.982;8.240;2022-07-17T15:14:29;29.10;30.60
1526;DHT22;756;49.982;8.240;2022-07-17T15:16:55;29.10;30.80
1526;DHT22;756;49.982;8.240;2022-07-17T15:19:23;29.10;30.00
1526;DHT22;756;49.982;8.240;2022-07-17T15:21:51;29.20;30.70
1526;DHT22;756;49.982;8.240;2022-07-17T15:24:20;29.30;30.70
1526;DHT22;756;49.982;8.240;2022-07-17T15:26:48;29.30;30.40
1526;DHT22;756;49.982;8.240;2022-07-17T15:29:16;29.20;30.50
1526;DHT22;756;49.982;8.240;2022-07-17T15:31:43;29.20;30.70
1526;DHT22;756;49.982;8.240;2022-07-17T15:34:11;29.20;31.00
1526;DHT22;756;49.982;8.240;2022-07-17T15:36:38;29.20;31.10
1526;DHT22;756;49.982;8.240;2022-07-17T15:39:05;29.10;30.90
1526;DHT22;756;49.982;8.240;2022-07-17T15:41:33;29.20;31.30
1526;DHT22;756;49.982;8.240;2022-07-17T15:44:00;29.20;31.00
1526;DHT22;756;49.982;8.240;2022-07-17T15:46:27;29.20;30.50
1526;DHT22;756;49.982;8.240;2022-07-17T15:48:55;29.10;30.70
1526;DHT22;756;49.982;8.240;2022-07-17T15:51:22;29.00;30.50
1526;DHT22;756;49.982;8.240;2022-07-17T15:53:49;28.90;30.50
1526;DHT22;756;49.982;8.240;2022-07-17T15:56:15;28.80;30.60
1526;DHT22;756;49.982;8.240;2022-07-17T15:58:42;28.80;30.70
1526;DHT22;756;49.982;8.240;2022-07-17T16:01:09;28.80;30.70
1526;DHT22;756;49.982;8.240;2022-07-17T16:03:37;28.80;30.80
1526;DHT22;756;49.982;8.240;2022-07-17T16:06:12;28.90;30.80
1526;DHT22;756;49.982;8.240;2022-07-17T16:08:39;28.90;30.60
1526;DHT22;756;49.982;8.240;2022-07-17T16:11:06;28.90;30.60
1526;DHT22;756;49.982;8.240;2022-07-17T16:13:33;28.90;30.90
1526;DHT22;756;49.982;8.240;2022-07-17T16:16:00;28.90;31.00
1526;DHT22;756;49.982;8.240;2022-07-17T16:18:28;28.90;30.70
1526;DHT22;756;49.982;8.240;2022-07-17T16:20:54;28.90;30.60
1526;DHT22;756;49.982;8.240;2022-07-17T16:23:22;29.00;30.70
1526;DHT22;756;49.982;8.240;2022-07-17T16:25:52;29.10;30.20
1526;DHT22;756;49.982;8.240;2022-07-17T16:28:19;29.00;31.10
1526;DHT22;756;49.982;8.240;2022-07-17T16:30:45;29.10;30.80
1526;DHT22;756;49.982;8.240;2022-07-17T16:33:12;29.00;31.00
1526;DHT22;756;49.982;8.240;2022-07-17T16:35:40;29.00;31.00
1526;DHT22;756;49.982;8.240;2022-07-17T16:38:07;28.90;31.00
1526;DHT22;756;49.982;8.240;2022-07-17T16:40:34;28.90;31.40
1526;DHT22;756;49.982;8.240;2022-07-17T16:43:01;28.90;31.40